RJSH(METAR)
12/16 16:00
METAR RJSH 160700Z 30006KT 9999 FEW030 BKN040 03/M04 Q1009 RMK
2CU030 7CU040 A2980=
戻る
トップページへ戻る
IMOC Co,.Ltd.